ADDS METAR Data INFO
IDs: Format: Raw Decoded Include TAF

Data at: 0038 UTC 21 Jan 2018

METAR for:KSGH (Springfield Muni, OH, US)
Text:KSGH 202356Z AUTO 21006KT 10SM OVC021 05/00 A3009 RMK AO2 SLP199 T00500000 10072 20050 51017
Temperature: 5.0°C ( 41°F)
Dewpoint: 0.0°C ( 32°F) [RH = 70%]
Pressure (altimeter):30.09 inches Hg (1019.0 mb) [Sea level pressure: 1019.9 mb]
Winds:from the SSW (210 degrees) at 7 MPH (6 knots; 3.1 m/s)
Visibility:10 or more sm (16+ km)
Ceiling:2100 feet AGL
Clouds: overcast cloud deck at 2100 feet AGL
QC Flag:automated observation with no human augmentation